Main page
METAR-TAF:

METAR-TAF

Airports :

Épinal – Mirecourt Airport

Épinal, France

latitude: 48-19-31N, longitude: 6-04-00E, elevation: 330 m

Current weather observation

The report was made 25 minutes ago, at 12:30 UTC
Wind 10 kt from the South/Southwest
Temperature 19°C
Humidity 83%
Pressure 1015 hPa
Visibility 10 km or more
Scattered clouds at a height of 1500 ft
Broken clouds at a height of 2100 ft

METAR: LFSG 171230Z AUTO 20010KT 9999 SCT015 BKN021 19/16 Q1015

Time: 14:55 (12:55 UTC)


TAF: missing

Weather observations and forecasts of more than 4000 airports (METAR and TAF reports).

The available stations are represented by yellow and red dots on the map.

Hover mouse over dot to see the name of the station.

Then click to see weather observations and forecasts.

To change the map : click on the green buttons with a black cross to zoom in, on the green button with a dash to zoom out, or on the green arrows for adjacent maps.


METAR-TAF: